createdAt,value
2022-12-09T00:00:58.539Z,69.07
2022-12-09T00:03:43.860Z,66.30
2022-12-09T00:06:34.691Z,56.53
2022-12-09T00:09:13.793Z,55.08
2022-12-09T00:12:05.782Z,60.13
2022-12-09T00:14:44.360Z,64.28
2022-12-09T00:17:26.584Z,62.55
2022-12-09T00:20:06.857Z,58.28
2022-12-09T00:22:48.864Z,58.95
2022-12-09T00:25:42.902Z,56.95
2022-12-09T00:31:17.033Z,55.35
2022-12-09T00:33:57.020Z,61.22
2022-12-09T00:36:41.941Z,65.03
2022-12-09T00:39:27.878Z,61.40
2022-12-09T00:42:02.714Z,62.00
2022-12-09T00:44:50.485Z,61.67
2022-12-09T00:47:28.416Z,53.42
2022-12-09T00:50:17.977Z,63.55
2022-12-09T00:52:57.417Z,58.53
2022-12-09T00:55:36.622Z,56.60
2022-12-09T00:58:17.640Z,65.43
2022-12-09T01:00:59.905Z,54.75
2022-12-09T01:03:38.540Z,59.22
2022-12-09T01:06:34.273Z,64.00
2022-12-09T01:09:18.316Z,60.28
2022-12-09T01:12:03.075Z,59.80
2022-12-09T01:14:49.129Z,51.13
2022-12-09T01:17:29.585Z,56.75
2022-12-09T01:20:11.322Z,71.78
2022-12-09T01:22:52.609Z,67.13
2022-12-09T01:25:42.543Z,68.90
2022-12-09T01:28:34.761Z,63.22
2022-12-09T01:31:28.151Z,61.13
2022-12-09T01:34:19.363Z,68.57
2022-12-09T01:37:13.201Z,61.22
2022-12-09T01:39:59.455Z,63.38
2022-12-09T01:42:58.094Z,56.65
2022-12-09T01:45:58.169Z,61.15
2022-12-09T01:48:47.816Z,60.05
2022-12-09T01:51:26.188Z,64.40
2022-12-09T01:54:09.925Z,52.83
2022-12-09T01:59:45.519Z,60.63
2022-12-09T02:02:28.215Z,63.50
2022-12-09T02:05:12.060Z,61.15
2022-12-09T02:07:53.168Z,73.70
2022-12-09T02:10:41.994Z,68.75
2022-12-09T02:13:59.242Z,58.78
2022-12-09T02:17:05.914Z,65.43
2022-12-09T02:20:01.878Z,62.55
2022-12-09T02:22:53.325Z,68.10
2022-12-09T02:25:41.764Z,67.65
2022-12-09T02:28:45.244Z,62.72
2022-12-09T02:31:50.276Z,64.63
2022-12-09T02:34:40.069Z,66.45
2022-12-09T02:37:42.719Z,85.32
2022-12-09T02:40:34.692Z,71.88
2022-12-09T02:43:22.884Z,77.35
2022-12-09T02:46:17.494Z,83.80
2022-12-09T02:49:04.869Z,82.60
2022-12-09T02:52:03.676Z,84.53
2022-12-09T02:54:47.662Z,81.53
2022-12-09T02:57:31.902Z,68.63
2022-12-09T03:00:15.742Z,70.75
2022-12-09T03:05:52.659Z,70.35
2022-12-09T03:08:56.770Z,79.30
2022-12-09T03:11:40.649Z,73.55
2022-12-09T03:14:44.051Z,71.63
2022-12-09T03:17:29.013Z,69.55
2022-12-09T03:20:21.456Z,78.53
2022-12-09T03:23:06.501Z,74.82
2022-12-09T03:25:53.171Z,82.45
2022-12-09T03:28:36.157Z,95.28
2022-12-09T03:31:22.319Z,88.73
2022-12-09T03:34:09.732Z,105.18
2022-12-09T03:36:54.485Z,96.53
2022-12-09T03:39:44.486Z,89.88
2022-12-09T03:42:34.194Z,89.88
2022-12-09T03:45:18.996Z,96.10
2022-12-09T03:48:02.350Z,93.47
2022-12-09T03:50:40.738Z,82.10
2022-12-09T03:53:29.176Z,91.28
2022-12-09T03:56:27.175Z,92.30
2022-12-09T03:59:08.847Z,147.93
2022-12-09T04:01:46.490Z,108.90
2022-12-09T04:04:31.588Z,108.28
2022-12-09T04:07:17.585Z,92.95
2022-12-09T04:10:08.254Z,96.55
2022-12-09T04:12:55.889Z,85.20
2022-12-09T04:15:37.513Z,91.30
2022-12-09T04:18:21.688Z,92.07
2022-12-09T04:21:00.503Z,83.30
2022-12-09T04:23:50.370Z,87.18
2022-12-09T04:26:36.237Z,86.07
2022-12-09T04:29:25.229Z,92.35
2022-12-09T04:32:10.585Z,97.28
2022-12-09T04:34:52.473Z,108.03
2022-12-09T04:37:34.887Z,108.28
2022-12-09T04:40:30.261Z,102.75
2022-12-09T04:43:22.393Z,98.43
2022-12-09T04:46:20.536Z,100.03
2022-12-09T04:49:14.759Z,94.50
2022-12-09T04:52:03.121Z,103.10
2022-12-09T04:54:50.925Z,101.15
2022-12-09T04:57:33.208Z,108.65
2022-12-09T05:00:14.355Z,101.00
2022-12-09T05:02:58.383Z,108.07
2022-12-09T05:05:43.917Z,101.35
2022-12-09T05:08:31.810Z,105.27
2022-12-09T05:11:24.988Z,115.05
2022-12-09T05:14:03.793Z,135.93
2022-12-09T05:16:44.823Z,154.32
2022-12-09T05:19:25.974Z,141.57
2022-12-09T05:22:08.564Z,121.25
2022-12-09T05:24:50.312Z,116.40
2022-12-09T05:27:31.867Z,110.63
2022-12-09T05:30:16.362Z,110.10
2022-12-09T05:33:06.061Z,105.88
2022-12-09T05:35:55.736Z,114.80
2022-12-09T05:38:37.615Z,117.05
2022-12-09T05:41:17.821Z,118.22
2022-12-09T05:44:05.143Z,112.75
2022-12-09T05:46:54.257Z,104.60
2022-12-09T05:49:39.300Z,112.22
2022-12-09T05:52:23.515Z,119.82
2022-12-09T05:55:09.519Z,127.15
2022-12-09T05:58:02.773Z,127.95
2022-12-09T06:00:50.876Z,139.38
2022-12-09T06:03:37.726Z,117.18
2022-12-09T06:06:28.206Z,126.65
2022-12-09T06:09:12.365Z,119.28
2022-12-09T06:12:01.849Z,115.85
2022-12-09T06:17:19.522Z,122.68
2022-12-09T06:20:01.133Z,120.53
2022-12-09T06:22:50.244Z,119.57
2022-12-09T06:25:33.915Z,109.65
2022-12-09T06:28:11.947Z,124.55
2022-12-09T06:30:53.966Z,122.28
2022-12-09T06:33:58.300Z,119.10
2022-12-09T06:36:55.438Z,122.07
2022-12-09T06:39:45.517Z,119.65
2022-12-09T06:42:28.914Z,123.85
2022-12-09T06:45:16.034Z,121.88
2022-12-09T06:47:58.064Z,124.78
2022-12-09T06:50:40.397Z,122.95
2022-12-09T06:53:25.327Z,116.13
2022-12-09T06:56:11.815Z,131.60
2022-12-09T06:59:05.991Z,130.63
2022-12-09T07:01:54.383Z,131.70
2022-12-09T07:04:36.584Z,128.85
2022-12-09T07:07:21.089Z,128.75
2022-12-09T07:10:05.007Z,128.82
2022-12-09T07:15:33.983Z,122.47
2022-12-09T07:18:25.185Z,119.20
2022-12-09T07:21:16.290Z,119.32
2022-12-09T07:23:57.777Z,116.50
2022-12-09T07:26:42.063Z,125.22
2022-12-09T07:29:27.682Z,118.00
2022-12-09T07:32:11.765Z,124.55
2022-12-09T07:34:55.740Z,112.43
2022-12-09T07:37:51.123Z,112.93
2022-12-09T07:40:33.541Z,123.97
2022-12-09T07:43:18.740Z,111.00
2022-12-09T07:46:05.991Z,112.00
2022-12-09T07:48:51.202Z,116.25
2022-12-09T07:51:37.035Z,107.07
2022-12-09T07:54:31.961Z,115.97
2022-12-09T07:57:18.411Z,114.95
2022-12-09T08:00:00.643Z,117.57
2022-12-09T08:02:47.158Z,123.18
2022-12-09T08:05:32.809Z,126.45
2022-12-09T08:08:21.414Z,120.70
2022-12-09T08:11:28.620Z,119.90
2022-12-09T08:14:12.505Z,128.18
2022-12-09T08:16:56.649Z,120.15
2022-12-09T08:19:55.765Z,121.15
2022-12-09T08:22:37.727Z,115.80
2022-12-09T08:25:27.113Z,118.90
2022-12-09T08:28:18.836Z,113.85
2022-12-09T08:31:03.087Z,109.03
2022-12-09T08:33:52.404Z,108.85
2022-12-09T08:36:36.980Z,105.85
2022-12-09T08:39:22.740Z,97.32
2022-12-09T08:42:04.948Z,96.80
2022-12-09T08:44:55.836Z,107.90
2022-12-09T08:47:39.523Z,95.13
2022-12-09T08:50:29.743Z,92.35
2022-12-09T08:53:11.967Z,94.38
2022-12-09T08:56:12.905Z,93.32
2022-12-09T08:58:58.016Z,105.38
2022-12-09T09:01:44.808Z,88.28
2022-12-09T09:04:32.819Z,96.05
2022-12-09T09:07:00.917Z,89.57
2022-12-09T09:09:53.190Z,86.75
2022-12-09T09:12:43.511Z,84.80
2022-12-09T09:15:25.781Z,84.75
2022-12-09T09:18:14.350Z,85.88
2022-12-09T09:21:02.581Z,89.53
2022-12-09T09:23:53.332Z,90.70
2022-12-09T09:26:43.377Z,96.45
2022-12-09T09:29:31.817Z,96.85
2022-12-09T09:32:13.400Z,103.28
2022-12-09T09:35:10.268Z,95.03
2022-12-09T09:38:00.775Z,91.38
2022-12-09T09:41:04.366Z,97.45
2022-12-09T09:43:59.996Z,91.05
2022-12-09T09:46:47.953Z,100.13
2022-12-09T09:49:40.819Z,92.10
2022-12-09T09:52:38.246Z,100.82
2022-12-09T09:55:57.498Z,185.70
2022-12-09T09:58:42.759Z,100.68
2022-12-09T10:01:28.693Z,98.57
2022-12-09T10:04:19.316Z,92.45
2022-12-09T10:07:33.312Z,93.28
2022-12-09T10:10:38.492Z,90.78
2022-12-09T10:14:03.045Z,96.82
2022-12-09T10:36:12.382Z,72.25
2022-12-09T10:38:48.784Z,68.07
2022-12-09T10:42:04.045Z,74.20
2022-12-09T10:44:45.149Z,67.53
2022-12-09T10:47:54.622Z,65.68
2022-12-09T10:50:50.152Z,70.78
2022-12-09T10:53:33.256Z,70.03
2022-12-09T10:56:42.505Z,59.67
2022-12-09T10:59:36.771Z,77.40
2022-12-09T11:02:28.796Z,75.65
2022-12-09T11:08:45.440Z,68.47
2022-12-09T11:11:19.890Z,66.90
2022-12-09T11:14:04.939Z,57.22
2022-12-09T11:17:14.459Z,50.70
2022-12-09T11:20:11.578Z,56.15
2022-12-09T11:23:25.683Z,48.15
2022-12-09T11:26:24.540Z,52.95
2022-12-09T11:29:39.675Z,49.20
2022-12-09T11:32:18.793Z,43.35
2022-12-09T11:35:11.389Z,43.42
2022-12-09T11:38:01.995Z,44.28
2022-12-09T11:41:03.511Z,38.38
2022-12-09T11:43:57.556Z,39.88
2022-12-09T11:46:44.227Z,41.70
2022-12-09T11:49:33.219Z,44.85
2022-12-09T11:52:31.881Z,43.58
2022-12-09T11:55:09.912Z,43.70
2022-12-09T11:58:14.869Z,50.90
2022-12-09T12:01:03.615Z,54.53
2022-12-09T12:03:50.440Z,51.50
2022-12-09T12:07:00.536Z,59.45
2022-12-09T12:09:52.401Z,49.70
2022-12-09T12:12:49.482Z,63.63
2022-12-09T12:15:39.287Z,66.47
2022-12-09T12:18:29.727Z,58.42
2022-12-09T12:21:31.879Z,59.20
2022-12-09T12:24:25.619Z,61.58
2022-12-09T12:27:49.475Z,65.10
2022-12-09T12:30:50.317Z,59.25
2022-12-09T12:34:23.518Z,60.17
2022-12-09T12:37:27.703Z,61.40
2022-12-09T12:40:46.296Z,64.25
2022-12-09T12:44:46.808Z,74.13
2022-12-09T12:48:27.076Z,60.50
2022-12-09T12:51:25.171Z,59.15
2022-12-09T12:54:18.793Z,59.97
2022-12-09T12:57:14.395Z,63.50
2022-12-09T13:00:23.912Z,67.88
2022-12-09T13:03:22.056Z,64.68
2022-12-09T13:06:10.984Z,56.47
2022-12-09T13:09:02.683Z,69.25
2022-12-09T13:12:17.815Z,58.30
2022-12-09T13:18:14.914Z,58.22
2022-12-09T13:21:06.417Z,62.97
2022-12-09T13:24:21.720Z,61.80
2022-12-09T13:27:21.658Z,61.05
2022-12-09T13:30:06.546Z,65.20
2022-12-09T13:33:02.779Z,71.25
2022-12-09T13:36:17.256Z,74.88
2022-12-09T13:39:03.011Z,73.97
2022-12-09T13:42:14.238Z,73.60
2022-12-09T13:45:25.645Z,53.40
2022-12-09T13:48:14.817Z,70.28
2022-12-09T13:51:03.404Z,83.47
2022-12-09T13:53:51.826Z,81.82
2022-12-09T13:56:31.227Z,81.22
2022-12-09T13:59:40.840Z,82.35
2022-12-09T14:02:35.992Z,87.78
2022-12-09T14:05:40.467Z,75.88
2022-12-09T14:11:38.056Z,72.70
2022-12-09T14:14:27.955Z,81.80
2022-12-09T14:17:09.493Z,78.50
2022-12-09T14:20:31.190Z,75.70
2022-12-09T14:23:29.746Z,71.70
2022-12-09T14:26:13.749Z,68.22
2022-12-09T14:29:07.377Z,69.63
2022-12-09T14:32:31.063Z,72.85
2022-12-09T14:35:18.888Z,67.28
2022-12-09T14:39:08.025Z,63.72
2022-12-09T14:44:55.127Z,63.75
2022-12-09T14:48:01.927Z,60.85
2022-12-09T14:50:52.785Z,67.43
2022-12-09T14:53:37.421Z,61.45
2022-12-09T14:56:13.235Z,60.30
2022-12-09T14:58:59.736Z,61.17
2022-12-09T15:02:17.376Z,61.55
2022-12-09T15:05:02.392Z,61.33
2022-12-09T15:08:00.207Z,61.85
2022-12-09T15:10:50.529Z,61.72
2022-12-09T15:13:45.345Z,59.10
2022-12-09T15:16:28.452Z,61.33
2022-12-09T15:22:09.061Z,69.40
2022-12-09T15:27:50.878Z,68.47
2022-12-09T15:30:42.598Z,74.95
2022-12-09T15:33:35.204Z,83.93
2022-12-09T15:36:25.438Z,73.32
2022-12-09T15:39:19.959Z,72.40
2022-12-09T15:42:10.943Z,67.97
2022-12-09T15:45:10.442Z,69.45
2022-12-09T15:47:46.265Z,72.10
2022-12-09T15:50:45.549Z,71.80
2022-12-09T15:53:53.793Z,68.50
2022-12-09T15:56:54.966Z,69.38
2022-12-09T16:00:07.404Z,72.63
2022-12-09T16:02:59.359Z,60.83
2022-12-09T16:05:43.970Z,74.43
2022-12-09T16:08:31.608Z,70.47
2022-12-09T16:11:44.247Z,56.05
2022-12-09T16:14:49.426Z,66.13
2022-12-09T16:18:07.854Z,57.72
2022-12-09T16:21:03.410Z,62.10
2022-12-09T16:23:39.415Z,55.65
2022-12-09T16:26:34.372Z,59.03
2022-12-09T16:29:26.611Z,63.50
2022-12-09T16:32:19.253Z,56.95
2022-12-09T16:35:53.572Z,59.60
2022-12-09T16:38:44.382Z,51.33
2022-12-09T16:41:25.911Z,59.63
2022-12-09T16:44:37.540Z,63.10
2022-12-09T16:47:27.617Z,56.00
2022-12-09T16:53:19.712Z,62.00
2022-12-09T16:56:26.928Z,50.38
2022-12-09T16:59:06.409Z,60.83
2022-12-09T17:01:47.945Z,51.22
2022-12-09T17:04:38.751Z,52.50
2022-12-09T17:07:23.537Z,56.92
2022-12-09T17:10:16.575Z,57.03
2022-12-09T17:12:58.761Z,52.97
2022-12-09T17:15:36.430Z,50.58
2022-12-09T17:18:30.205Z,51.35
2022-12-09T17:21:36.890Z,48.80
2022-12-09T17:24:31.442Z,49.67
2022-12-09T17:27:13.554Z,45.80
2022-12-09T17:29:54.836Z,44.92
2022-12-09T17:32:33.417Z,45.38
2022-12-09T17:35:20.445Z,47.03
2022-12-09T17:38:29.455Z,41.42
2022-12-09T17:41:21.046Z,44.92
2022-12-09T17:44:10.417Z,40.33
2022-12-09T17:46:56.556Z,37.05
2022-12-09T17:49:48.232Z,35.42
2022-12-09T17:52:42.219Z,36.10
2022-12-09T17:55:36.496Z,40.30
2022-12-09T17:58:27.512Z,40.00
2022-12-09T18:01:16.504Z,35.15
2022-12-09T18:04:15.844Z,36.03
2022-12-09T18:07:05.851Z,36.03
2022-12-09T18:09:54.381Z,34.90
2022-12-09T18:12:52.143Z,38.17
2022-12-09T18:15:32.822Z,36.42
2022-12-09T18:18:25.690Z,35.35
2022-12-09T18:21:15.326Z,34.17
2022-12-09T18:23:59.574Z,29.08
2022-12-09T18:26:47.769Z,33.20
2022-12-09T18:29:27.015Z,29.02
2022-12-09T18:32:04.395Z,30.42
2022-12-09T18:34:48.082Z,36.42
2022-12-09T18:37:32.671Z,29.35
2022-12-09T18:40:21.426Z,24.95
2022-12-09T18:42:52.559Z,28.10
2022-12-09T18:45:46.319Z,35.80
2022-12-09T18:48:28.163Z,27.77
2022-12-09T18:51:04.315Z,25.85
2022-12-09T18:53:45.570Z,27.65
2022-12-09T18:56:26.423Z,26.05
2022-12-09T18:59:12.438Z,26.42
2022-12-09T19:02:05.794Z,21.20
2022-12-09T19:04:55.046Z,23.02
2022-12-09T19:10:33.815Z,27.73
2022-12-09T19:13:28.794Z,24.92
2022-12-09T19:16:01.014Z,23.77
2022-12-09T19:18:56.399Z,24.90
2022-12-09T19:21:47.303Z,27.13
2022-12-09T19:24:38.442Z,27.02
2022-12-09T19:27:40.032Z,23.15
2022-12-09T19:30:23.400Z,24.95
2022-12-09T19:33:12.957Z,24.98
2022-12-09T19:35:49.010Z,25.05
2022-12-09T19:38:39.945Z,23.90
2022-12-09T19:41:23.350Z,24.23
2022-12-09T19:44:08.766Z,23.70
2022-12-09T19:47:00.597Z,42.20
2022-12-09T19:49:33.529Z,39.67
2022-12-09T19:52:19.454Z,23.73
2022-12-09T19:55:00.643Z,20.75
2022-12-09T19:57:43.853Z,20.88
2022-12-09T20:00:30.139Z,21.25
2022-12-09T20:03:20.505Z,22.95
2022-12-09T20:06:01.551Z,20.20
2022-12-09T20:08:48.037Z,20.88
2022-12-09T20:11:41.172Z,19.77
2022-12-09T20:14:25.188Z,19.48
2022-12-09T20:17:15.164Z,19.67
2022-12-09T20:20:09.766Z,32.28
2022-12-09T20:22:54.989Z,26.75
2022-12-09T20:25:28.715Z,25.95
2022-12-09T20:28:08.789Z,19.75
2022-12-09T20:30:59.359Z,23.48
2022-12-09T20:33:46.423Z,22.45
2022-12-09T20:36:28.889Z,21.50
2022-12-09T20:39:35.524Z,23.08
2022-12-09T20:42:19.251Z,18.33
2022-12-09T20:45:00.033Z,19.70
2022-12-09T20:47:39.392Z,20.67
2022-12-09T20:50:25.714Z,19.50
2022-12-09T20:53:21.657Z,20.48
2022-12-09T20:56:12.346Z,19.45
2022-12-09T20:59:12.903Z,17.95
2022-12-09T21:02:06.409Z,19.13
2022-12-09T21:05:02.034Z,19.33
2022-12-09T21:07:49.125Z,19.08
2022-12-09T21:10:33.449Z,21.42
2022-12-09T21:13:18.331Z,20.15
2022-12-09T21:15:56.288Z,21.52
2022-12-09T21:18:44.126Z,21.45
2022-12-09T21:21:31.093Z,20.88
2022-12-09T21:24:14.354Z,21.02
2022-12-09T21:26:56.248Z,24.23
2022-12-09T21:29:50.529Z,23.30
2022-12-09T21:32:40.418Z,20.38
2022-12-09T21:35:32.324Z,22.88
2022-12-09T21:38:28.306Z,20.10
2022-12-09T21:41:24.738Z,20.20
2022-12-09T21:44:00.113Z,29.70
2022-12-09T21:46:43.939Z,126.40
2022-12-09T21:49:16.716Z,49.97
2022-12-09T21:52:13.480Z,43.00
2022-12-09T21:54:58.399Z,84.13
2022-12-09T21:57:40.582Z,46.78
2022-12-09T22:00:30.277Z,33.33
2022-12-09T22:03:12.700Z,41.15
2022-12-09T22:06:06.427Z,41.55
2022-12-09T22:08:54.319Z,53.35
2022-12-09T22:11:41.100Z,73.53
2022-12-09T22:14:30.704Z,48.85
2022-12-09T22:17:18.543Z,40.53
2022-12-09T22:20:49.082Z,38.85
2022-12-09T22:23:21.147Z,32.53
2022-12-09T22:26:07.144Z,30.80
2022-12-09T22:28:47.239Z,37.92
2022-12-09T22:31:43.423Z,35.08
2022-12-09T22:34:14.405Z,172.90
2022-12-09T22:36:57.237Z,40.33
2022-12-09T22:39:49.377Z,40.70
2022-12-09T22:42:33.113Z,32.88
2022-12-09T22:45:36.043Z,30.48
2022-12-09T22:48:26.286Z,30.52
2022-12-09T22:51:21.023Z,27.45
2022-12-09T22:54:00.388Z,35.15
2022-12-09T22:56:51.668Z,27.77
2022-12-09T22:59:42.679Z,29.77
2022-12-09T23:02:23.047Z,25.85
2022-12-09T23:05:28.039Z,27.80
2022-12-09T23:08:15.444Z,29.75
2022-12-09T23:11:07.461Z,27.90
2022-12-09T23:13:56.052Z,37.83
2022-12-09T23:16:47.102Z,106.47
2022-12-09T23:19:45.315Z,85.22
2022-12-09T23:22:37.784Z,73.82
2022-12-09T23:25:18.935Z,78.28
2022-12-09T23:28:05.495Z,61.65
2022-12-09T23:30:49.432Z,69.50
2022-12-09T23:33:31.037Z,74.43
2022-12-09T23:36:37.428Z,59.70
2022-12-09T23:39:20.375Z,49.85
2022-12-09T23:42:08.809Z,38.97
2022-12-09T23:44:58.483Z,30.65
2022-12-09T23:47:41.441Z,32.63
2022-12-09T23:50:29.714Z,28.60
2022-12-09T23:53:16.333Z,32.20
2022-12-09T23:56:06.403Z,27.88
2022-12-09T23:58:47.509Z,63.55
